Time;durP1;ratioP1;P1;durP2;ratioP2;P2;SDS_P1;SDS_P2;PMS_P1;PMS_P2;Temp;Humidity;BMP_temperature;BMP_pressure;BME280_temperature;BME280_humidity;BME280_pressure;Samples;Min_cycle;Max_cycle;Signal;HPM_P1;HPM_P2
2023/04/08 00:01:32;;;;;;;28.83;16.38;;;5.10;99.90;;;;;;7554397;19;19930;-77
2023/04/08 00:04:04;;;;;;;26.30;15.40;;;5.00;99.90;;;;;;7584957;19;20014;-77
2023/04/08 00:06:37;;;;;;;27.80;15.18;;;5.00;99.90;;;;;;7581834;19;20014;-77
2023/04/08 00:09:10;;;;;;;28.67;14.73;;;4.90;99.90;;;;;;7613160;19;20018;-77
2023/04/08 00:11:42;;;;;;;26.13;16.13;;;4.90;99.90;;;;;;7595214;19;20106;-77
2023/04/08 00:14:14;;;;;;;24.40;14.52;;;4.90;99.90;;;;;;7593206;19;20018;-76
2023/04/08 00:16:46;;;;;;;24.90;15.68;;;4.90;99.90;;;;;;7588982;19;21000;-78
2023/04/08 00:19:19;;;;;;;25.52;15.13;;;4.90;99.90;;;;;;7592715;19;20010;-77
2023/04/08 00:21:52;;;;;;;25.23;14.75;;;5.00;99.90;;;;;;7588790;19;20054;-78
2023/04/08 00:24:24;;;;;;;22.90;14.55;;;5.00;99.90;;;;;;7590030;19;20371;-78
2023/04/08 00:26:57;;;;;;;26.02;14.68;;;5.00;99.90;;;;;;7566176;19;20033;-77
2023/04/08 00:29:29;;;;;;;26.23;14.30;;;5.00;99.90;;;;;;7564335;19;20015;-78
2023/04/08 00:32:02;;;;;;;23.52;14.55;;;4.90;99.90;;;;;;7576526;19;20498;-78
2023/04/08 00:34:36;;;;;;;22.73;14.97;;;4.90;99.90;;;;;;7563173;19;20425;-77
2023/04/08 00:37:08;;;;;;;26.88;14.77;;;4.90;99.90;;;;;;7554827;19;20017;-78
2023/04/08 00:39:40;;;;;;;26.70;14.37;;;5.00;99.90;;;;;;7559773;19;20020;-78
2023/04/08 00:42:13;;;;;;;22.88;15.20;;;4.90;99.90;;;;;;7572127;19;20022;-76
2023/04/08 00:44:45;;;;;;;28.65;16.40;;;4.80;99.90;;;;;;7562851;19;20011;-78
2023/04/08 00:47:17;;;;;;;27.92;15.93;;;4.80;99.90;;;;;;7565332;19;20033;-78
2023/04/08 00:49:50;;;;;;;23.50;14.55;;;4.70;99.90;;;;;;7563221;19;20834;-77
2023/04/08 00:52:22;;;;;;;25.63;14.80;;;4.70;99.90;;;;;;7563967;19;20027;-77
2023/04/08 00:54:55;;;;;;;23.77;15.43;;;4.70;99.90;;;;;;7566611;19;20365;-77
2023/04/08 00:57:28;;;;;;;33.63;14.35;;;4.70;99.90;;;;;;7585703;19;20014;-77
2023/04/08 01:00:00;;;;;;;27.10;14.73;;;4.80;99.90;;;;;;7583848;19;20038;-78
2023/04/08 01:02:45;;;;;;;25.75;15.05;;;4.80;99.90;;;;;;7578919;19;20596;-76
2023/04/08 01:05:52;;;;;;;31.92;15.40;;;4.90;99.90;;;;;;7578821;19;20109;-77
2023/04/08 01:08:28;;;;;;;26.08;14.70;;;4.90;99.90;;;;;;7582424;19;20017;-78
2023/04/08 01:11:07;;;;;;;23.73;13.63;;;4.90;99.90;;;;;;7586933;19;20026;-77
2023/04/08 01:13:41;;;;;;;23.80;13.23;;;4.80;99.90;;;;;;7551504;19;20018;-76
2023/04/08 01:16:16;;;;;;;24.92;13.32;;;4.70;99.90;;;;;;7585491;19;20149;-77
2023/04/08 01:18:51;;;;;;;22.02;13.32;;;4.70;99.90;;;;;;7574108;19;20007;-77
2023/04/08 01:21:24;;;;;;;19.90;12.80;;;4.70;99.90;;;;;;7561644;19;20026;-77
2023/04/08 01:24:10;;;;;;;25.65;14.25;;;4.70;99.90;;;;;;7573451;19;20029;-77
2023/04/08 01:26:43;;;;;;;21.90;13.18;;;4.70;99.90;;;;;;7568187;19;21660;-77
2023/04/08 01:29:16;;;;;;;23.58;13.60;;;4.70;99.90;;;;;;7589762;19;20022;-77
2023/04/08 01:31:49;;;;;;;19.17;13.45;;;4.70;99.90;;;;;;7567999;19;20019;-77
2023/04/08 01:34:23;;;;;;;23.55;13.35;;;4.70;99.90;;;;;;7568647;19;20011;-78
2023/04/08 01:36:58;;;;;;;22.40;13.02;;;4.70;99.90;;;;;;7592169;19;20018;-78
2023/04/08 01:39:34;;;;;;;22.45;13.45;;;4.70;99.90;;;;;;7586122;19;20495;-77
2023/04/08 01:42:08;;;;;;;23.75;14.05;;;4.70;99.90;;;;;;7562953;19;20562;-78
2023/04/08 01:44:41;;;;;;;25.27;13.23;;;4.60;99.90;;;;;;7589229;19;20555;-77
2023/04/08 01:47:14;;;;;;;28.63;14.57;;;4.60;99.90;;;;;;7583735;19;20030;-77
2023/04/08 01:49:50;;;;;;;23.75;14.07;;;4.60;99.90;;;;;;7565524;19;20014;-78
2023/04/08 01:52:25;;;;;;;25.30;14.32;;;4.60;99.90;;;;;;7587962;19;20010;-77
2023/04/08 01:54:58;;;;;;;27.10;15.05;;;4.60;99.90;;;;;;7591813;19;20014;-78
2023/04/08 01:57:34;;;;;;;33.38;16.17;;;4.60;99.90;;;;;;7563661;19;20022;-78
2023/04/08 02:00:11;;;;;;;26.60;14.77;;;4.50;99.90;;;;;;7574408;19;20527;-77
2023/04/08 02:02:57;;;;;;;23.20;13.38;;;4.50;99.90;;;;;;7547521;19;20060;-77
2023/04/08 02:05:29;;;;;;;25.23;14.40;;;4.50;99.90;;;;;;7568898;19;20011;-76
2023/04/08 02:08:02;;;;;;;21.05;12.25;;;4.50;99.90;;;;;;7588503;19;20097;-78
2023/04/08 02:10:34;;;;;;;23.17;13.95;;;4.60;99.90;;;;;;7569295;19;21798;-78
2023/04/08 02:13:09;;;;;;;21.10;12.88;;;4.60;99.90;;;;;;7541235;19;20011;-77
2023/04/08 02:15:45;;;;;;;23.53;13.83;;;4.50;99.90;;;;;;7568027;19;20026;-78
2023/04/08 02:18:26;;;;;;;27.85;13.60;;;4.50;99.90;;;;;;7581579;19;20030;-77
2023/04/08 02:21:10;;;;;;;25.67;13.32;;;4.50;99.90;;;;;;7580493;19;20052;-77
2023/04/08 02:23:49;;;;;;;23.80;13.32;;;4.60;99.90;;;;;;7579687;19;20045;-76
2023/04/08 02:26:23;;;;;;;21.70;12.43;;;4.50;99.90;;;;;;7592942;19;20019;-78
2023/04/08 02:28:56;;;;;;;25.75;14.25;;;4.60;99.90;;;;;;7556060;19;20011;-78
2023/04/08 02:31:32;;;;;;;22.08;13.25;;;4.50;99.90;;;;;;7566023;19;20380;-79
2023/04/08 02:34:07;;;;;;;26.48;14.27;;;4.50;99.90;;;;;;7588911;19;20093;-79
2023/04/08 02:36:41;;;;;;;24.80;13.63;;;4.60;99.90;;;;;;7580601;19;20058;-78
2023/04/08 02:39:13;;;;;;;25.02;13.52;;;4.50;99.90;;;;;;7587148;19;21210;-78
2023/04/08 02:41:46;;;;;;;29.25;15.23;;;4.60;99.90;;;;;;7539993;19;20006;-77
2023/04/08 02:44:18;;;;;;;22.45;13.88;;;4.50;99.90;;;;;;7565969;19;20019;-78
2023/04/08 02:46:50;;;;;;;26.30;14.63;;;4.50;99.90;;;;;;7576699;19;20015;-77
2023/04/08 02:49:23;;;;;;;23.27;14.02;;;4.50;99.90;;;;;;7562114;19;20022;-79
2023/04/08 02:51:55;;;;;;;24.35;13.80;;;4.50;99.90;;;;;;7557656;19;20018;-80
2023/04/08 02:54:27;;;;;;;26.23;14.48;;;4.50;99.90;;;;;;7571199;19;20487;-78
2023/04/08 02:57:00;;;;;;;27.17;15.82;;;4.50;99.90;;;;;;7532121;19;20330;-77
2023/04/08 02:59:32;;;;;;;27.08;15.85;;;4.40;99.90;;;;;;7576401;19;20026;-77
2023/04/08 03:02:05;;;;;;;27.63;15.60;;;4.50;99.90;;;;;;7565989;19;20014;-78
2023/04/08 03:04:37;;;;;;;31.67;15.05;;;4.40;99.90;;;;;;7533108;19;20025;-78
2023/04/08 03:07:10;;;;;;;27.75;15.48;;;4.30;99.90;;;;;;7560168;19;20085;-80
2023/04/08 03:09:42;;;;;;;27.60;14.73;;;4.40;99.90;;;;;;7590219;19;21458;-78
2023/04/08 03:12:14;;;;;;;24.60;15.27;;;4.50;99.90;;;;;;7579458;19;20629;-79
2023/04/08 03:14:47;;;;;;;32.90;15.55;;;4.40;99.90;;;;;;7579131;19;20021;-78
2023/04/08 03:17:25;;;;;;;32.17;15.63;;;4.40;99.90;;;;;;7577223;19;20015;-79
2023/04/08 03:19:57;;;;;;;26.73;16.23;;;4.40;99.90;;;;;;7567505;19;20105;-78
2023/04/08 03:22:30;;;;;;;29.90;16.35;;;4.40;99.90;;;;;;7574115;19;21987;-77
2023/04/08 03:25:03;;;;;;;29.73;15.77;;;4.50;99.90;;;;;;7586644;19;20041;-78
2023/04/08 03:27:35;;;;;;;30.30;17.25;;;4.40;99.90;;;;;;7570170;19;20011;-77
2023/04/08 03:30:08;;;;;;;25.90;14.70;;;4.50;99.90;;;;;;7556303;19;20056;-78
2023/04/08 03:32:40;;;;;;;25.67;15.00;;;4.60;99.90;;;;;;7572561;19;20014;-78
2023/04/08 03:35:12;;;;;;;23.88;15.73;;;4.60;99.90;;;;;;7579136;19;21295;-78
2023/04/08 03:37:47;;;;;;;26.85;15.70;;;4.60;99.90;;;;;;7566572;19;21565;-77
2023/04/08 03:40:19;;;;;;;30.25;16.00;;;4.50;99.90;;;;;;7583174;19;20006;-77
2023/04/08 03:42:51;;;;;;;34.70;16.50;;;4.60;99.90;;;;;;7560448;19;21260;-78
2023/04/08 03:45:25;;;;;;;31.50;13.80;;;4.60;99.90;;;;;;7528904;19;20021;-77
2023/04/08 03:47:57;;;;;;;27.42;14.32;;;4.70;99.90;;;;;;7542569;19;20026;-77
2023/04/08 03:50:30;;;;;;;27.83;15.10;;;4.70;99.90;;;;;;7564588;19;20094;-78
2023/04/08 03:53:05;;;;;;;27.77;16.33;;;4.80;99.90;;;;;;7563974;19;20014;-78
2023/04/08 03:55:42;;;;;;;23.95;14.32;;;4.70;99.90;;;;;;7551739;19;20062;-77
2023/04/08 03:58:15;;;;;;;28.88;16.88;;;4.70;99.90;;;;;;7551718;19;20133;-78
2023/04/08 04:00:47;;;;;;;27.65;16.80;;;4.70;99.90;;;;;;7571676;19;20696;-77
2023/04/08 04:03:20;;;;;;;29.67;15.50;;;4.60;99.90;;;;;;7569619;19;20801;-79
2023/04/08 04:05:52;;;;;;;26.80;15.80;;;4.70;99.90;;;;;;7577814;19;20015;-78
2023/04/08 04:08:25;;;;;;;26.80;15.45;;;4.70;99.90;;;;;;7581654;19;20041;-78
2023/04/08 04:11:00;;;;;;;24.58;14.30;;;4.70;99.90;;;;;;7579749;19;20487;-77
2023/04/08 04:13:33;;;;;;;30.77;16.08;;;4.70;99.90;;;;;;7549487;19;20048;-79
2023/04/08 04:16:05;;;;;;;27.83;15.95;;;4.80;99.90;;;;;;7580187;19;20585;-79
2023/04/08 04:18:37;;;;;;;29.27;15.90;;;4.80;99.90;;;;;;7567938;19;20022;-78
2023/04/08 04:21:10;;;;;;;30.58;15.90;;;4.80;99.90;;;;;;7564528;19;20407;-79
2023/04/08 04:23:42;;;;;;;26.65;15.68;;;4.80;99.90;;;;;;7585253;19;20017;-78
2023/04/08 04:26:14;;;;;;;32.30;16.58;;;4.80;99.90;;;;;;7578169;19;20386;-78
2023/04/08 04:28:47;;;;;;;27.00;15.45;;;4.90;99.90;;;;;;7561747;19;20684;-78
2023/04/08 04:31:22;;;;;;;28.40;15.65;;;4.90;99.90;;;;;;7557428;19;20007;-78
2023/04/08 04:33:54;;;;;;;31.58;16.05;;;4.90;99.90;;;;;;7566631;19;20029;-78
2023/04/08 04:36:31;;;;;;;30.10;16.77;;;4.80;99.90;;;;;;7584440;19;20015;-78
2023/04/08 04:39:03;;;;;;;32.53;17.58;;;4.90;99.90;;;;;;7586636;19;20036;-79
2023/04/08 04:41:39;;;;;;;29.58;16.77;;;4.90;99.90;;;;;;7593606;19;20286;-79
2023/04/08 04:44:12;;;;;;;27.80;15.10;;;5.00;99.90;;;;;;7577536;19;23454;-78
2023/04/08 04:46:47;;;;;;;28.02;16.98;;;5.10;99.90;;;;;;7596637;19;20032;-79
2023/04/08 04:49:20;;;;;;;28.63;16.52;;;5.10;99.90;;;;;;7579591;19;20021;-79
2023/04/08 04:51:52;;;;;;;27.25;16.45;;;5.10;99.90;;;;;;7563669;19;20019;-79
2023/04/08 04:54:24;;;;;;;28.50;15.15;;;5.20;99.90;;;;;;7584889;19;20681;-79
2023/04/08 04:57:00;;;;;;;28.85;17.25;;;5.20;99.90;;;;;;7550845;19;20011;-78
2023/04/08 04:59:32;;;;;;;32.55;16.02;;;5.20;99.90;;;;;;7545072;19;20015;-78
2023/04/08 05:02:05;;;;;;;28.30;17.17;;;5.30;99.90;;;;;;7565422;19;23658;-80
2023/04/08 05:04:37;;;;;;;29.15;16.58;;;5.40;99.90;;;;;;7553949;19;20019;-78
2023/04/08 05:07:10;;;;;;;29.75;18.17;;;5.40;99.90;;;;;;7573793;19;20015;-78
2023/04/08 05:09:42;;;;;;;29.58;17.33;;;5.40;99.90;;;;;;7554493;19;20017;-77
2023/04/08 05:12:15;;;;;;;31.55;17.38;;;5.40;99.90;;;;;;7557415;19;21268;-78
2023/04/08 05:14:48;;;;;;;27.73;16.98;;;5.50;99.90;;;;;;7561206;19;20015;-78
2023/04/08 05:17:20;;;;;;;31.27;16.35;;;5.50;99.90;;;;;;7579832;19;20029;-79
2023/04/08 05:19:52;;;;;;;32.38;19.75;;;5.60;99.90;;;;;;7591511;19;20023;-78
2023/04/08 05:22:24;;;;;;;31.80;17.52;;;5.70;99.90;;;;;;7582727;19;20068;-78
2023/04/08 05:24:57;;;;;;;33.47;18.48;;;5.60;99.90;;;;;;7572024;19;20025;-78
2023/04/08 05:27:29;;;;;;;32.38;17.85;;;5.70;99.90;;;;;;7561408;19;20030;-77
2023/04/08 05:30:01;;;;;;;29.42;16.92;;;5.70;99.90;;;;;;7561379;19;20020;-78
2023/04/08 05:32:34;;;;;;;35.30;17.90;;;5.70;99.90;;;;;;7568133;19;20011;-78
2023/04/08 05:35:08;;;;;;;32.45;18.52;;;5.80;99.90;;;;;;7545381;19;20110;-76
2023/04/08 05:37:40;;;;;;;32.13;18.58;;;5.80;99.90;;;;;;7554986;19;20013;-77
2023/04/08 05:40:13;;;;;;;34.28;18.23;;;5.90;99.90;;;;;;7547547;19;20461;-77
2023/04/08 05:42:45;;;;;;;32.15;18.98;;;5.90;99.90;;;;;;7577829;19;20018;-78
2023/04/08 05:45:18;;;;;;;29.83;18.33;;;5.90;99.90;;;;;;7577162;19;20431;-79
2023/04/08 05:47:50;;;;;;;31.88;18.08;;;5.90;99.90;;;;;;7586981;19;20052;-78
2023/04/08 05:50:22;;;;;;;36.83;20.20;;;5.90;99.90;;;;;;7581753;19;20572;-76
2023/04/08 05:52:54;;;;;;;36.83;20.17;;;5.90;99.90;;;;;;7578816;19;20737;-77
2023/04/08 05:55:27;;;;;;;32.78;17.73;;;5.90;99.90;;;;;;7570079;19;20583;-77
2023/04/08 05:57:59;;;;;;;33.45;19.52;;;5.90;99.90;;;;;;7580024;19;20018;-77
2023/04/08 06:00:32;;;;;;;29.87;18.50;;;5.90;99.90;;;;;;7599340;19;20022;-79
2023/04/08 06:03:04;;;;;;;29.95;18.33;;;6.00;99.90;;;;;;7578151;19;20284;-77
2023/04/08 06:05:36;;;;;;;33.17;19.98;;;6.00;99.90;;;;;;7577843;19;20486;-77
2023/04/08 06:08:08;;;;;;;30.17;18.20;;;6.00;99.90;;;;;;7535198;19;20019;-79
2023/04/08 06:10:49;;;;;;;32.50;18.15;;;6.00;99.90;;;;;;7557393;19;20019;-82
2023/04/08 06:13:24;;;;;;;31.85;18.55;;;6.00;99.90;;;;;;7593211;19;20018;-84
2023/04/08 06:15:57;;;;;;;32.65;18.63;;;6.10;99.90;;;;;;7591844;19;20093;-83
2023/04/08 06:18:29;;;;;;;26.80;15.10;;;6.10;99.90;;;;;;7580059;19;20179;-81
2023/04/08 06:21:01;;;;;;;31.88;19.10;;;6.10;99.90;;;;;;7573176;19;20011;-82
2023/04/08 06:23:34;;;;;;;34.42;18.02;;;6.20;99.90;;;;;;7543301;19;21033;-83
2023/04/08 06:26:06;;;;;;;29.98;17.55;;;6.20;99.90;;;;;;7553298;19;20019;-77
2023/04/08 06:28:39;;;;;;;30.55;18.25;;;6.30;99.90;;;;;;7548674;19;20482;-81
2023/04/08 06:31:11;;;;;;;30.17;17.98;;;6.30;99.90;;;;;;7583609;19;20053;-83
2023/04/08 06:33:43;;;;;;;31.90;17.98;;;6.30;99.90;;;;;;7584987;19;20018;-83
2023/04/08 06:36:15;;;;;;;30.88;17.83;;;6.40;99.90;;;;;;7553653;19;21290;-84
2023/04/08 06:38:48;;;;;;;28.25;18.02;;;6.40;99.90;;;;;;7563832;19;20049;-82
2023/04/08 06:41:20;;;;;;;33.47;18.70;;;6.50;99.90;;;;;;7529867;19;20010;-79
2023/04/08 06:43:53;;;;;;;27.65;17.40;;;6.50;99.90;;;;;;7515993;19;20016;-77
2023/04/08 06:46:26;;;;;;;29.08;17.40;;;6.60;99.90;;;;;;7561176;19;20014;-78
2023/04/08 06:48:59;;;;;;;26.63;16.92;;;6.60;99.90;;;;;;7587661;19;20474;-77
2023/04/08 06:51:31;;;;;;;29.42;17.67;;;6.70;99.90;;;;;;7552878;19;20527;-78
2023/04/08 06:54:04;;;;;;;27.42;17.25;;;6.70;99.90;;;;;;7563740;19;20018;-78
2023/04/08 06:56:36;;;;;;;26.80;16.60;;;6.70;99.90;;;;;;7572829;19;21665;-77
2023/04/08 06:59:08;;;;;;;28.13;18.42;;;6.70;99.90;;;;;;7541620;19;20018;-81
2023/04/08 07:01:41;;;;;;;31.65;18.13;;;6.80;99.90;;;;;;7561725;19;20715;-77
2023/04/08 07:04:16;;;;;;;28.90;18.70;;;6.90;99.90;;;;;;7550142;19;20027;-77
2023/04/08 07:06:49;;;;;;;34.58;20.58;;;6.90;99.90;;;;;;7569231;19;20019;-78
2023/04/08 07:09:21;;;;;;;35.47;21.00;;;6.90;99.90;;;;;;7565785;19;20451;-77
2023/04/08 07:11:53;;;;;;;36.30;22.05;;;6.90;99.90;;;;;;7557329;19;20121;-79
2023/04/08 07:14:25;;;;;;;39.35;23.58;;;6.90;99.90;;;;;;7575391;19;20030;-78
2023/04/08 07:16:57;;;;;;;39.47;24.02;;;7.00;99.90;;;;;;7591356;19;20805;-78
2023/04/08 07:19:30;;;;;;;38.95;23.45;;;7.00;99.90;;;;;;7572662;19;20018;-76
2023/04/08 07:22:02;;;;;;;38.42;23.80;;;7.00;99.90;;;;;;7547530;19;20394;-77
2023/04/08 07:24:35;;;;;;;38.45;23.02;;;7.00;99.90;;;;;;7566386;19;20704;-77
2023/04/08 07:27:08;;;;;;;40.78;23.60;;;7.10;99.90;;;;;;7542160;19;20019;-78
2023/04/08 07:29:40;;;;;;;40.88;24.77;;;7.10;99.90;;;;;;7565588;19;20482;-77
2023/04/08 07:32:15;;;;;;;35.08;21.10;;;7.20;99.90;;;;;;7576394;19;20010;-79
2023/04/08 07:34:47;;;;;;;31.35;20.00;;;7.20;99.90;;;;;;7574183;19;21218;-77
2023/04/08 07:37:20;;;;;;;33.77;20.93;;;7.10;99.90;;;;;;7586628;19;20626;-78
2023/04/08 07:39:52;;;;;;;33.13;19.38;;;7.10;99.90;;;;;;7569975;19;20379;-77
2023/04/08 07:42:25;;;;;;;28.70;18.37;;;7.10;99.90;;;;;;7559975;19;20698;-78
2023/04/08 07:44:57;;;;;;;35.17;20.55;;;7.20;99.90;;;;;;7583958;19;20279;-77
2023/04/08 07:47:29;;;;;;;31.60;19.55;;;7.10;99.90;;;;;;7562561;19;20347;-77
2023/04/08 07:50:03;;;;;;;36.25;21.45;;;7.10;99.90;;;;;;7560990;19;20014;-77
2023/04/08 07:52:35;;;;;;;33.95;21.35;;;7.10;99.90;;;;;;7586055;19;21296;-79
2023/04/08 07:55:07;;;;;;;38.58;22.85;;;7.20;99.90;;;;;;7562666;19;20348;-79
2023/04/08 07:57:39;;;;;;;34.45;20.77;;;7.10;99.90;;;;;;7584799;19;20018;-78
2023/04/08 08:00:19;;;;;;;36.25;21.45;;;7.00;99.90;;;;;;7566832;19;20365;-76
2023/04/08 08:02:51;;;;;;;35.05;21.83;;;7.00;99.90;;;;;;7568111;19;20015;-76
2023/04/08 08:05:24;;;;;;;40.28;23.20;;;7.00;99.90;;;;;;7549028;19;20943;-76
2023/04/08 08:07:57;;;;;;;38.10;22.90;;;6.90;99.90;;;;;;7577177;19;20698;-76
2023/04/08 08:10:29;;;;;;;44.72;25.73;;;6.80;99.90;;;;;;7560333;19;20085;-77
2023/04/08 08:13:05;;;;;;;36.88;22.23;;;6.80;99.90;;;;;;7509125;19;20018;-76
2023/04/08 08:15:37;;;;;;;33.88;21.85;;;6.80;99.90;;;;;;7528686;19;20014;-77
2023/04/08 08:18:10;;;;;;;35.00;21.88;;;6.80;99.90;;;;;;7480107;19;20285;-77
2023/04/08 08:20:42;;;;;;;38.67;23.20;;;6.80;99.90;;;;;;7491649;19;20526;-77
2023/04/08 08:23:15;;;;;;;33.92;21.40;;;6.90;99.90;;;;;;7493234;19;20611;-72
2023/04/08 08:25:47;;;;;;;34.20;20.67;;;6.80;99.90;;;;;;7488399;19;20017;-72
2023/04/08 08:28:19;;;;;;;30.20;19.75;;;6.80;99.90;;;;;;7533766;19;20078;-72
2023/04/08 08:30:51;;;;;;;30.25;18.80;;;6.80;99.90;;;;;;7521297;19;21565;-73
2023/04/08 08:33:24;;;;;;;31.35;19.67;;;6.70;99.90;;;;;;7519727;19;20828;-73
2023/04/08 08:35:57;;;;;;;31.98;19.13;;;6.60;99.90;;;;;;7526716;19;20018;-74
2023/04/08 08:38:30;;;;;;;33.85;20.92;;;6.50;99.90;;;;;;7532754;19;20668;-74
2023/04/08 08:41:03;;;;;;;38.03;20.55;;;6.30;99.90;;;;;;7525619;19;20467;-73
2023/04/08 08:43:36;;;;;;;;;;;6.30;99.90;;;;;;7537530;19;20029;-73
2023/04/08 08:46:10;;;;;;;34.63;19.75;;;6.30;99.90;;;;;;7543487;19;19947;-74
2023/04/08 08:48:43;;;;;;;36.20;21.60;;;6.30;99.90;;;;;;7524773;19;20357;-74
2023/04/08 08:51:16;;;;;;;35.47;22.03;;;6.20;99.90;;;;;;7533535;19;20022;-73
2023/04/08 08:53:48;;;;;;;33.92;21.23;;;6.20;99.90;;;;;;7499877;19;20015;-76
2023/04/08 08:56:20;;;;;;;38.97;22.65;;;6.20;99.90;;;;;;7522221;19;20007;-76
2023/04/08 08:58:53;;;;;;;39.50;21.73;;;6.20;99.90;;;;;;7542499;19;20374;-75
2023/04/08 09:01:34;;;;;;;35.87;21.20;;;6.10;99.90;;;;;;7472792;19;20044;-76
2023/04/08 09:04:11;;;;;;;39.30;22.98;;;6.10;99.90;;;;;;7540783;19;20029;-76
2023/04/08 09:06:46;;;;;;;48.25;25.77;;;6.10;99.90;;;;;;7573769;19;20131;-76
2023/04/08 09:09:18;;;;;;;38.17;22.40;;;6.20;99.90;;;;;;7542861;19;20015;-76
2023/04/08 09:12:03;;;;;;;38.13;22.80;;;6.20;99.90;;;;;;7513405;19;20026;-73
2023/04/08 09:14:36;;;;;;;36.83;21.95;;;6.00;99.90;;;;;;7506189;19;20019;-74
2023/04/08 09:17:09;;;;;;;37.13;22.27;;;6.10;99.90;;;;;;7500538;19;20357;-74
2023/04/08 09:20:08;;;;;;;39.70;23.93;;;6.10;99.90;;;;;;7523064;19;20015;-73
2023/04/08 09:22:57;;;;;;;41.90;24.80;;;6.10;99.90;;;;;;7538743;19;20018;-73
2023/04/08 09:25:33;;;;;;;41.25;24.02;;;6.20;99.90;;;;;;7546397;19;20015;-75
2023/04/08 09:28:19;;;;;;;37.42;23.10;;;6.30;99.90;;;;;;7540450;19;20607;-73
2023/04/08 09:30:51;;;;;;;44.10;23.60;;;6.30;99.90;;;;;;7563498;19;20498;-72
2023/04/08 09:33:30;;;;;;;38.92;23.30;;;6.40;99.90;;;;;;7553331;19;20078;-74
2023/04/08 09:36:02;;;;;;;36.60;22.83;;;6.30;99.90;;;;;;7563932;19;20604;-73
2023/04/08 09:38:35;;;;;;;44.88;25.23;;;6.40;99.90;;;;;;7551844;19;20036;-72
2023/04/08 09:41:08;;;;;;;40.83;23.73;;;6.40;99.90;;;;;;7550957;19;20030;-73
2023/04/08 09:43:48;;;;;;;41.10;24.60;;;6.40;99.90;;;;;;7535027;19;20366;-73
2023/04/08 09:46:59;;;;;;;38.42;23.27;;;6.50;99.90;;;;;;7548103;19;20046;-73
2023/04/08 09:49:42;;;;;;;41.65;22.83;;;6.40;99.90;;;;;;7535926;19;20994;-74
2023/04/08 09:52:22;;;;;;;33.08;20.70;;;6.40;99.90;;;;;;7522383;19;20018;-73
2023/04/08 09:55:04;;;;;;;36.67;20.70;;;6.20;99.90;;;;;;7550385;19;20021;-74
2023/04/08 09:57:52;;;;;;;38.60;20.27;;;6.20;99.90;;;;;;7501193;19;20384;-75
2023/04/08 10:00:37;;;;;;;30.50;19.05;;;6.00;99.90;;;;;;7523843;19;20022;-74
2023/04/08 10:03:20;;;;;;;32.65;20.20;;;6.00;99.90;;;;;;7531320;19;20018;-74
2023/04/08 10:05:55;;;;;;;30.52;19.17;;;6.00;99.90;;;;;;7527033;19;20025;-74
2023/04/08 10:08:27;;;;;;;34.40;20.38;;;6.20;99.90;;;;;;7561777;19;21038;-74
2023/04/08 10:10:59;;;;;;;37.05;22.55;;;6.30;99.90;;;;;;7533634;19;20021;-75
2023/04/08 10:13:32;;;;;;;34.45;19.98;;;6.30;99.90;;;;;;7520137;19;20576;-74
2023/04/08 10:16:21;;;;;;;40.63;21.83;;;6.40;99.90;;;;;;7536493;19;20482;-76
2023/04/08 10:18:57;;;;;;;32.72;19.70;;;6.40;99.90;;;;;;7539952;19;20010;-75
2023/04/08 10:21:36;;;;;;;35.65;21.55;;;6.60;99.90;;;;;;7542046;19;20077;-75
2023/04/08 10:24:09;;;;;;;29.65;19.92;;;6.80;99.90;;;;;;7577677;19;20033;-75
2023/04/08 10:26:43;;;;;;;32.55;19.90;;;6.80;99.90;;;;;;7538626;19;20143;-76
2023/04/08 10:29:28;;;;;;;33.83;20.65;;;6.90;99.90;;;;;;7547764;19;20010;-76
2023/04/08 10:32:01;;;;;;;35.00;21.55;;;6.90;99.90;;;;;;7511430;19;20011;-75
2023/04/08 10:34:33;;;;;;;35.55;22.60;;;7.00;99.90;;;;;;7555888;19;20972;-75
2023/04/08 10:37:07;;;;;;;35.95;21.80;;;7.40;99.90;;;;;;7543020;19;20014;-76
2023/04/08 10:39:48;;;;;;;34.55;22.15;;;7.60;99.90;;;;;;7527977;19;20607;-76
2023/04/08 10:42:26;;;;;;;34.88;22.40;;;7.50;99.90;;;;;;7539427;19;20018;-76
2023/04/08 10:44:59;;;;;;;36.33;22.27;;;7.40;99.90;;;;;;7473569;19;20416;-76
2023/04/08 10:47:32;;;;;;;33.65;22.25;;;7.40;99.90;;;;;;7523060;19;20622;-76
2023/04/08 10:50:16;;;;;;;38.53;21.20;;;7.60;99.90;;;;;;7525063;19;20069;-75
2023/04/08 10:52:54;;;;;;;35.42;22.67;;;7.60;99.90;;;;;;7534881;19;20018;-75
2023/04/08 10:55:27;;;;;;;35.13;22.55;;;7.50;99.90;;;;;;7498527;19;21349;-76
2023/04/08 10:58:07;;;;;;;36.67;22.88;;;7.40;99.90;;;;;;7463405;19;20025;-75
2023/04/08 11:00:39;;;;;;;36.97;22.52;;;7.40;99.90;;;;;;7507341;19;20023;-75
2023/04/08 11:03:12;;;;;;;35.95;22.98;;;7.40;99.90;;;;;;7519803;19;20006;-76
2023/04/08 11:05:48;;;;;;;37.17;22.88;;;7.30;99.90;;;;;;7477840;19;20589;-74
2023/04/08 11:08:28;;;;;;;41.17;23.05;;;7.10;99.90;;;;;;7493118;19;20459;-74
2023/04/08 11:11:00;;;;;;;40.67;24.38;;;7.20;99.90;;;;;;7514676;19;20358;-75
2023/04/08 11:13:35;;;;;;;38.33;22.97;;;7.10;99.90;;;;;;7510002;19;20094;-75
2023/04/08 11:16:08;;;;;;;36.70;23.92;;;7.10;99.90;;;;;;7552783;19;20474;-75
2023/04/08 11:18:50;;;;;;;35.28;23.58;;;7.00;99.90;;;;;;7499469;19;20018;-74
2023/04/08 11:21:24;;;;;;;35.35;22.75;;;7.00;99.90;;;;;;7512388;19;20778;-74
2023/04/08 11:23:57;;;;;;;38.58;22.77;;;7.00;99.90;;;;;;7502813;19;20026;-73
2023/04/08 11:26:30;;;;;;;45.22;23.40;;;7.00;99.90;;;;;;7512288;19;20030;-74
2023/04/08 11:29:03;;;;;;;38.40;24.88;;;7.00;99.90;;;;;;7483118;19;20011;-74
2023/04/08 11:31:35;;;;;;;37.33;23.90;;;6.90;99.90;;;;;;7526663;19;20631;-74
2023/04/08 11:34:08;;;;;;;36.30;24.13;;;6.90;99.90;;;;;;7574795;19;20007;-74
2023/04/08 11:36:40;;;;;;;39.35;24.67;;;6.90;99.90;;;;;;7532956;19;20010;-74
2023/04/08 11:39:12;;;;;;;42.88;25.67;;;6.90;99.90;;;;;;7549802;19;20078;-74
2023/04/08 11:41:45;;;;;;;41.97;26.20;;;6.90;99.90;;;;;;7557072;19;20346;-75
2023/04/08 11:44:18;;;;;;;39.60;25.60;;;6.90;99.90;;;;;;7572503;19;20350;-73
2023/04/08 11:46:56;;;;;;;41.83;26.45;;;6.80;99.90;;;;;;7569667;19;20633;-74
2023/04/08 11:49:43;;;;;;;42.25;27.48;;;6.60;99.90;;;;;;7533071;19;20527;-74
2023/04/08 11:52:15;;;;;;;38.28;24.67;;;6.60;99.90;;;;;;7571299;19;20092;-76
2023/04/08 11:54:48;;;;;;;41.53;25.88;;;6.50;99.90;;;;;;7544173;19;20038;-74
2023/04/08 11:57:28;;;;;;;40.63;26.80;;;6.50;99.90;;;;;;7549466;19;20022;-74
2023/04/08 12:00:00;;;;;;;41.97;27.17;;;6.40;99.90;;;;;;7566631;19;20795;-74
2023/04/08 12:02:41;;;;;;;42.30;27.63;;;6.30;99.90;;;;;;7528705;19;21548;-74
2023/04/08 12:05:15;;;;;;;44.95;28.85;;;6.40;99.90;;;;;;7550373;19;20486;-73
2023/04/08 12:07:47;;;;;;;48.67;27.13;;;6.40;99.90;;;;;;7523917;19;20022;-74
2023/04/08 12:10:19;;;;;;;43.15;26.70;;;6.40;99.90;;;;;;7529263;19;20018;-73
2023/04/08 12:12:52;;;;;;;40.03;26.03;;;6.40;99.90;;;;;;7506783;19;20295;-74
2023/04/08 12:15:24;;;;;;;39.92;25.73;;;6.40;99.90;;;;;;7527679;19;20475;-74
2023/04/08 12:17:57;;;;;;;37.38;25.02;;;6.40;99.90;;;;;;7547915;19;20511;-73
2023/04/08 12:20:29;;;;;;;42.75;26.13;;;6.50;99.90;;;;;;7563237;19;20010;-74
2023/04/08 12:23:01;;;;;;;38.90;23.83;;;6.50;99.90;;;;;;7577155;19;20018;-74
2023/04/08 12:25:34;;;;;;;36.03;23.50;;;6.50;99.90;;;;;;7571948;19;20094;-74
2023/04/08 12:28:08;;;;;;;40.25;24.73;;;6.50;99.90;;;;;;7548308;19;20724;-75
2023/04/08 12:30:41;;;;;;;36.00;23.05;;;6.50;99.90;;;;;;7550394;19;22434;-75
2023/04/08 12:33:13;;;;;;;32.95;21.58;;;6.40;99.90;;;;;;7516260;19;20025;-75
2023/04/08 12:35:45;;;;;;;32.70;21.88;;;6.40;99.90;;;;;;7533778;19;20617;-74
2023/04/08 12:38:18;;;;;;;32.10;20.98;;;6.40;99.90;;;;;;7532067;19;20637;-75
2023/04/08 12:40:50;;;;;;;29.45;20.75;;;6.30;99.90;;;;;;7507529;19;20021;-74
2023/04/08 12:43:23;;;;;;;34.75;22.50;;;6.30;99.90;;;;;;7467438;19;20089;-74
2023/04/08 12:45:55;;;;;;;31.98;21.77;;;6.20;99.90;;;;;;7528014;19;20015;-75
2023/04/08 12:48:28;;;;;;;31.50;20.77;;;6.20;99.90;;;;;;7519096;19;20018;-74
2023/04/08 12:51:00;;;;;;;31.45;19.00;;;6.20;99.90;;;;;;7528667;19;20009;-75
2023/04/08 12:53:32;;;;;;;29.08;20.08;;;6.10;99.90;;;;;;7551054;19;20472;-74
2023/04/08 12:56:05;;;;;;;32.78;21.13;;;6.20;99.90;;;;;;7544263;19;20022;-74
2023/04/08 12:58:38;;;;;;;30.40;21.50;;;6.20;99.90;;;;;;7507585;19;20018;-74
2023/04/08 13:01:11;;;;;;;31.45;21.45;;;6.20;99.90;;;;;;7529685;19;22010;-74
2023/04/08 13:03:43;;;;;;;33.42;21.55;;;6.20;99.90;;;;;;7548096;19;20982;-74
2023/04/08 13:06:18;;;;;;;33.40;22.83;;;6.20;99.90;;;;;;7528363;19;20038;-74
2023/04/08 13:08:50;;;;;;;31.98;21.35;;;6.10;99.90;;;;;;7561522;19;20240;-74
2023/04/08 13:11:22;;;;;;;38.55;23.80;;;6.10;99.90;;;;;;7560231;19;20048;-73
2023/04/08 13:13:54;;;;;;;44.60;25.27;;;6.00;99.90;;;;;;7586351;19;20743;-73